createdAt,value
2018-09-09T00:02:18.242Z,100939
2018-09-09T00:04:47.823Z,100938
2018-09-09T00:07:16.643Z,100939
2018-09-09T00:09:46.214Z,100928
2018-09-09T00:12:15.050Z,100933
2018-09-09T00:14:43.891Z,100928
2018-09-09T00:17:12.726Z,100939
2018-09-09T00:19:41.590Z,100936
2018-09-09T00:22:10.447Z,100945
2018-09-09T00:24:39.296Z,100943
2018-09-09T00:27:08.112Z,100944
2018-09-09T00:29:36.948Z,100937
2018-09-09T00:32:05.789Z,100937
2018-09-09T00:34:34.625Z,100934
2018-09-09T00:37:04.201Z,100939
2018-09-09T00:39:33.034Z,100939
2018-09-09T00:42:01.879Z,100935
2018-09-09T00:44:30.715Z,100938
2018-09-09T00:46:59.553Z,100930
2018-09-09T00:49:28.374Z,100929
2018-09-09T00:51:58.974Z,100925
2018-09-09T00:54:27.812Z,100926
2018-09-09T00:56:57.380Z,100928
2018-09-09T00:59:26.210Z,100934
2018-09-09T01:01:55.782Z,100933
2018-09-09T01:04:24.615Z,100936
2018-09-09T01:06:53.448Z,100940
2018-09-09T01:09:22.278Z,100943
2018-09-09T01:11:51.855Z,100937
2018-09-09T01:14:20.692Z,100951
2018-09-09T01:16:49.531Z,100950
2018-09-09T01:19:18.355Z,100954
2018-09-09T01:21:47.193Z,100949
2018-09-09T01:24:16.027Z,100944
2018-09-09T01:26:45.601Z,100941
2018-09-09T01:29:14.442Z,100946
2018-09-09T01:31:43.270Z,100946
2018-09-09T01:34:12.143Z,100943
2018-09-09T01:36:41.681Z,100936
2018-09-09T01:39:10.515Z,100940
2018-09-09T01:41:39.350Z,100944
2018-09-09T01:44:08.184Z,100937
2018-09-09T01:46:37.018Z,100946
2018-09-09T01:49:05.865Z,100936
2018-09-09T01:51:34.682Z,100942
2018-09-09T01:54:03.516Z,100942
2018-09-09T01:56:33.094Z,100948
2018-09-09T01:59:01.919Z,100944
2018-09-09T02:01:30.756Z,100959
2018-09-09T02:03:59.587Z,100957
2018-09-09T02:06:28.420Z,100959
2018-09-09T02:08:57.251Z,100954
2018-09-09T02:11:26.082Z,100950
2018-09-09T02:13:54.916Z,100946
2018-09-09T02:16:23.739Z,100951
2018-09-09T02:18:52.577Z,100944
2018-09-09T02:21:21.400Z,100943
2018-09-09T02:23:50.228Z,100947
2018-09-09T02:26:19.061Z,100953
2018-09-09T02:28:47.893Z,100951
2018-09-09T02:31:16.731Z,100948
2018-09-09T02:33:45.566Z,100959
2018-09-09T02:36:14.413Z,100959
2018-09-09T02:38:43.247Z,100952
2018-09-09T02:41:12.092Z,100956
2018-09-09T02:43:40.982Z,100957
2018-09-09T02:46:09.752Z,100968
2018-09-09T02:48:38.580Z,100961
2018-09-09T02:51:07.404Z,100952
2018-09-09T02:53:36.973Z,100957
2018-09-09T02:56:05.807Z,100949
2018-09-09T02:58:35.382Z,100954
2018-09-09T03:01:04.211Z,100950
2018-09-09T03:03:33.054Z,100950
2018-09-09T03:06:01.889Z,100939
2018-09-09T03:08:30.708Z,100940
2018-09-09T03:10:59.540Z,100937
2018-09-09T03:13:28.365Z,100932
2018-09-09T03:15:57.203Z,100931
2018-09-09T03:18:26.029Z,100930
2018-09-09T03:20:55.603Z,100936
2018-09-09T03:23:24.437Z,100936
2018-09-09T03:25:53.270Z,100932
2018-09-09T03:28:22.145Z,100942
2018-09-09T03:30:51.668Z,100949
2018-09-09T03:33:20.499Z,100944
2018-09-09T03:35:50.076Z,100944
2018-09-09T03:38:18.904Z,100956
2018-09-09T03:40:47.743Z,100957
2018-09-09T03:43:16.575Z,100956
2018-09-09T03:45:46.148Z,100961
2018-09-09T03:48:14.978Z,100958
2018-09-09T03:50:43.823Z,100956
2018-09-09T03:53:12.668Z,100955
2018-09-09T03:55:41.500Z,100945
2018-09-09T03:58:10.347Z,100957
2018-09-09T04:00:39.184Z,100965
2018-09-09T04:03:08.008Z,100966
2018-09-09T04:05:36.841Z,100972
2018-09-09T04:08:05.669Z,100970
2018-09-09T04:10:34.500Z,100974
2018-09-09T04:13:03.324Z,100970
2018-09-09T04:15:32.148Z,100969
2018-09-09T04:18:00.986Z,100965
2018-09-09T04:20:29.800Z,100970
2018-09-09T04:22:58.642Z,100956
2018-09-09T04:25:27.484Z,100957
2018-09-09T04:27:56.312Z,100964
2018-09-09T04:30:25.150Z,100961
2018-09-09T04:32:53.982Z,100958
2018-09-09T04:35:22.830Z,100961
2018-09-09T04:37:51.662Z,100961
2018-09-09T04:40:20.499Z,100960
2018-09-09T04:42:49.329Z,100963
2018-09-09T04:45:18.898Z,100965
2018-09-09T04:47:47.732Z,100972
2018-09-09T04:50:16.563Z,100967
2018-09-09T04:52:45.397Z,100964
2018-09-09T04:55:14.238Z,100974
2018-09-09T04:57:43.067Z,100977
2018-09-09T05:00:11.912Z,100985
2018-09-09T05:02:40.749Z,100996
2018-09-09T05:05:10.440Z,100996
2018-09-09T05:07:39.155Z,100997
2018-09-09T05:10:08.731Z,101000
2018-09-09T05:12:37.627Z,101004
2018-09-09T05:15:06.453Z,101000
2018-09-09T05:17:35.286Z,101006
2018-09-09T05:20:04.126Z,101006
2018-09-09T05:22:33.699Z,100995
2018-09-09T05:25:02.538Z,101000
2018-09-09T05:27:31.369Z,101000
2018-09-09T05:30:00.209Z,101008
2018-09-09T05:32:29.034Z,101007
2018-09-09T05:34:57.865Z,101007
2018-09-09T05:37:27.439Z,101011
2018-09-09T05:39:56.270Z,101018
2018-09-09T05:42:25.154Z,101014
2018-09-09T05:44:53.927Z,101009
2018-09-09T05:47:22.774Z,101007
2018-09-09T05:49:51.608Z,101005
2018-09-09T05:52:20.457Z,101006
2018-09-09T05:54:49.299Z,101009
2018-09-09T05:57:18.874Z,101014
2018-09-09T05:59:47.694Z,101025
2018-09-09T06:02:17.271Z,101006
2018-09-09T06:04:46.096Z,101019
2018-09-09T06:07:14.926Z,101008
2018-09-09T06:09:43.755Z,101015
2018-09-09T06:12:12.590Z,101015
2018-09-09T06:14:41.432Z,101014
2018-09-09T06:17:10.266Z,101016
2018-09-09T06:19:39.097Z,101024
2018-09-09T06:22:07.929Z,101017
2018-09-09T06:24:36.779Z,101022
2018-09-09T06:27:05.619Z,101022
2018-09-09T06:29:34.444Z,101023
2018-09-09T06:32:03.288Z,101024
2018-09-09T06:34:32.871Z,101031
2018-09-09T06:37:01.693Z,101035
2018-09-09T06:39:31.273Z,101040
2018-09-09T06:42:00.105Z,101039
2018-09-09T06:44:28.950Z,101031
2018-09-09T06:46:57.781Z,101023
2018-09-09T06:49:26.607Z,101029
2018-09-09T06:51:56.190Z,101035
2018-09-09T06:54:25.041Z,101042
2018-09-09T06:56:53.905Z,101041
2018-09-09T06:59:23.471Z,101047
2018-09-09T07:01:52.314Z,101040
2018-09-09T07:04:21.183Z,101027
2018-09-09T07:06:50.003Z,101040
2018-09-09T07:09:18.841Z,101020
2018-09-09T07:11:47.791Z,101034
2018-09-09T07:14:16.524Z,101028
2018-09-09T07:16:45.368Z,101024
2018-09-09T07:19:14.283Z,101027
2018-09-09T07:21:43.034Z,101044
2018-09-09T07:24:11.886Z,101042
2018-09-09T07:26:40.697Z,101054
2018-09-09T07:29:09.543Z,101065
2018-09-09T07:31:38.418Z,101069
2018-09-09T07:34:07.247Z,101066
2018-09-09T07:36:36.053Z,101051
2018-09-09T07:39:04.926Z,101061
2018-09-09T07:41:33.764Z,101058
2018-09-09T07:44:02.598Z,101076
2018-09-09T07:46:31.485Z,101085
2018-09-09T07:49:00.260Z,101076
2018-09-09T07:51:29.078Z,101073
2018-09-09T07:53:57.911Z,101072
2018-09-09T07:56:26.733Z,101084
2018-09-09T07:58:55.576Z,101079
2018-09-09T08:01:24.406Z,101073
2018-09-09T08:03:53.238Z,101074
2018-09-09T08:06:22.812Z,101078
2018-09-09T08:08:51.660Z,101083
2018-09-09T08:11:20.492Z,101080
2018-09-09T08:13:49.315Z,101079
2018-09-09T08:16:18.151Z,101077
2018-09-09T08:18:46.987Z,101079
2018-09-09T08:21:16.580Z,101080
2018-09-09T08:23:45.451Z,101079
2018-09-09T08:26:14.279Z,101073
2018-09-09T08:28:43.116Z,101084
2018-09-09T08:31:11.954Z,101079
2018-09-09T08:33:40.795Z,101090
2018-09-09T08:36:09.626Z,101089
2018-09-09T08:38:38.454Z,101082
2018-09-09T08:41:07.294Z,101082
2018-09-09T08:43:36.173Z,101087
2018-09-09T08:46:05.014Z,101093
2018-09-09T08:48:33.862Z,101092
2018-09-09T08:51:02.701Z,101090
2018-09-09T08:53:31.533Z,101101
2018-09-09T08:56:00.371Z,101102
2018-09-09T08:58:29.516Z,101095
2018-09-09T09:00:58.049Z,101096
2018-09-09T09:03:26.881Z,101105
2018-09-09T09:05:55.730Z,101112
2018-09-09T09:08:24.576Z,101104
2018-09-09T09:10:54.151Z,101110
2018-09-09T09:13:22.989Z,101104
2018-09-09T09:15:51.852Z,101106
2018-09-09T09:18:20.696Z,101104
2018-09-09T09:20:49.532Z,101113
2018-09-09T09:23:18.375Z,101116
2018-09-09T09:25:47.207Z,101111
2018-09-09T09:28:16.037Z,101113
2018-09-09T09:30:44.898Z,101103
2018-09-09T09:33:13.702Z,101109
2018-09-09T09:35:42.547Z,101102
2018-09-09T09:38:11.394Z,101107
2018-09-09T09:40:40.249Z,101091
2018-09-09T09:43:09.084Z,101088
2018-09-09T09:45:37.932Z,101087
2018-09-09T09:48:06.762Z,101089
2018-09-09T09:50:35.609Z,101086
2018-09-09T09:53:05.219Z,101089
2018-09-09T09:55:34.080Z,101082
2018-09-09T09:58:02.858Z,101086
2018-09-09T10:00:31.694Z,101085
2018-09-09T10:03:01.277Z,101076
2018-09-09T10:05:30.123Z,101078
2018-09-09T10:07:58.962Z,101070
2018-09-09T10:10:27.789Z,101073
2018-09-09T10:12:56.627Z,101066
2018-09-09T10:15:25.462Z,101065
2018-09-09T10:17:54.317Z,101069
2018-09-09T10:20:23.152Z,101071
2018-09-09T10:22:51.974Z,101061
2018-09-09T10:25:20.807Z,101069
2018-09-09T10:27:50.378Z,101063
2018-09-09T10:30:19.227Z,101056
2018-09-09T10:32:48.048Z,101055
2018-09-09T10:35:16.875Z,101055
2018-09-09T10:37:45.704Z,101061
2018-09-09T10:40:14.565Z,101057
2018-09-09T10:42:43.406Z,101059
2018-09-09T10:45:12.259Z,101057
2018-09-09T10:47:41.116Z,101059
2018-09-09T10:50:09.919Z,101057
2018-09-09T10:52:39.500Z,101058
2018-09-09T10:55:09.074Z,101053
2018-09-09T10:57:37.901Z,101054
2018-09-09T11:00:06.743Z,101057
2018-09-09T11:02:35.588Z,101047
2018-09-09T11:05:04.423Z,101044
2018-09-09T11:07:33.252Z,101046
2018-09-09T11:10:02.133Z,101049
2018-09-09T11:12:30.972Z,101045
2018-09-09T11:14:59.796Z,101037
2018-09-09T11:17:28.633Z,101045
2018-09-09T11:19:57.467Z,101048
2018-09-09T11:22:26.311Z,101039
2018-09-09T11:24:55.139Z,101033
2018-09-09T11:27:24.785Z,101039
2018-09-09T11:29:53.669Z,101032
2018-09-09T11:32:22.456Z,101035
2018-09-09T11:34:51.293Z,101036
2018-09-09T11:37:20.128Z,101035
2018-09-09T11:39:49.708Z,101029
2018-09-09T11:42:18.548Z,101031
2018-09-09T11:44:47.410Z,101021
2018-09-09T11:47:16.275Z,101033
2018-09-09T11:49:45.111Z,101021
2018-09-09T11:52:13.945Z,101020
2018-09-09T11:54:43.528Z,101020
2018-09-09T11:57:12.355Z,101020
2018-09-09T11:59:41.937Z,101029
2018-09-09T12:02:10.765Z,101021
2018-09-09T12:04:40.368Z,101023
2018-09-09T12:07:09.199Z,101012
2018-09-09T12:09:38.773Z,101018
2018-09-09T12:12:08.355Z,101019
2018-09-09T12:14:37.192Z,101014
2018-09-09T12:17:06.051Z,101016
2018-09-09T12:19:34.892Z,101015
2018-09-09T12:22:03.724Z,101018
2018-09-09T12:24:32.570Z,101017
2018-09-09T12:27:01.410Z,101013
2018-09-09T12:29:30.243Z,101014
2018-09-09T12:31:59.089Z,101012
2018-09-09T12:34:27.926Z,101009
2018-09-09T12:36:56.769Z,101007
2018-09-09T12:39:25.614Z,100999
2018-09-09T12:41:54.440Z,100993
2018-09-09T12:44:23.331Z,100992
2018-09-09T12:46:52.243Z,100993
2018-09-09T12:49:21.083Z,100996
2018-09-09T12:51:49.923Z,100998
2018-09-09T12:54:19.492Z,100991
2018-09-09T12:56:48.336Z,100998
2018-09-09T12:59:17.170Z,100995
2018-09-09T13:01:45.997Z,100987
2018-09-09T13:04:15.585Z,100985
2018-09-09T13:06:44.435Z,100980
2018-09-09T13:09:13.273Z,100977
2018-09-09T13:11:42.106Z,100985
2018-09-09T13:14:10.950Z,100988
2018-09-09T13:16:39.794Z,100979
2018-09-09T13:19:08.642Z,100978
2018-09-09T13:21:37.470Z,100975
2018-09-09T13:24:06.307Z,100981
2018-09-09T13:26:35.194Z,100973
2018-09-09T13:29:04.268Z,100982
2018-09-09T13:31:32.907Z,100984
2018-09-09T13:34:02.486Z,100982
2018-09-09T13:36:31.334Z,100972
2018-09-09T13:39:00.163Z,100981
2018-09-09T13:41:28.998Z,100981
2018-09-09T13:43:57.832Z,100982
2018-09-09T13:46:26.692Z,100970
2018-09-09T13:48:55.527Z,100964
2018-09-09T13:51:24.355Z,100969
2018-09-09T13:53:53.207Z,100964
2018-09-09T13:56:22.042Z,100968
2018-09-09T13:58:50.880Z,100969
2018-09-09T14:01:19.722Z,100969
2018-09-09T14:03:48.623Z,100958
2018-09-09T14:06:17.442Z,100959
2018-09-09T14:08:46.249Z,100958
2018-09-09T14:11:15.138Z,100961
2018-09-09T14:13:43.982Z,100962
2018-09-09T14:16:12.815Z,100957
2018-09-09T14:18:41.650Z,100961
2018-09-09T14:21:10.488Z,100953
2018-09-09T14:23:39.344Z,100948
2018-09-09T14:26:08.163Z,100953
2018-09-09T14:28:37.016Z,100949
2018-09-09T14:31:05.860Z,100952
2018-09-09T14:33:34.699Z,100945
2018-09-09T14:36:03.540Z,100936
2018-09-09T14:38:32.399Z,100945
2018-09-09T14:41:01.229Z,100947
2018-09-09T14:43:30.080Z,100940
2018-09-09T14:45:58.950Z,100939
2018-09-09T14:48:27.780Z,100944
2018-09-09T14:50:56.642Z,100942
2018-09-09T14:53:25.508Z,100947
2018-09-09T14:55:54.329Z,100946
2018-09-09T14:58:23.160Z,100935
2018-09-09T15:00:52.177Z,100934
2018-09-09T15:03:21.025Z,100930
2018-09-09T15:05:49.887Z,100932
2018-09-09T15:08:18.741Z,100938
2018-09-09T15:10:47.572Z,100928
2018-09-09T15:13:16.402Z,100926
2018-09-09T15:15:45.238Z,100919
2018-09-09T15:18:14.062Z,100917
2018-09-09T15:20:43.646Z,100919
2018-09-09T15:23:12.494Z,100919
2018-09-09T15:25:41.352Z,100917
2018-09-09T15:28:10.186Z,100914
2018-09-09T15:30:39.032Z,100910
2018-09-09T15:33:07.865Z,100905
2018-09-09T15:35:36.710Z,100912
2018-09-09T15:41:12.381Z,100909
2018-09-09T15:43:45.072Z,100904
2018-09-09T15:46:17.167Z,100907
2018-09-09T15:48:44.659Z,100908
2018-09-09T15:51:12.335Z,100900
2018-09-09T15:53:52.151Z,100899
2018-09-09T15:59:07.034Z,100897
2018-09-09T16:01:39.824Z,100893
2018-09-09T16:04:13.427Z,100901
2018-09-09T16:06:45.086Z,100895
2018-09-09T16:09:16.343Z,100900
2018-09-09T16:11:46.122Z,100894
2018-09-09T16:14:15.787Z,100902
2018-09-09T16:16:46.280Z,100896
2018-09-09T16:19:22.918Z,100898
2018-09-09T16:21:52.123Z,100901
2018-09-09T16:24:40.756Z,100901
2018-09-09T16:29:43.766Z,100911
2018-09-09T16:32:14.814Z,100915
2018-09-09T16:34:53.770Z,100910
2018-09-09T16:37:20.887Z,100913
2018-09-09T16:39:51.184Z,100908
2018-09-09T16:42:33.856Z,100914
2018-09-09T16:44:58.938Z,100913
2018-09-09T16:50:14.772Z,100913
2018-09-09T16:52:50.488Z,100914
2018-09-09T16:55:18.129Z,100904
2018-09-09T16:57:52.152Z,100904
2018-09-09T17:00:17.938Z,100905
2018-09-09T17:02:57.016Z,100904
2018-09-09T17:05:25.268Z,100913
2018-09-09T17:08:03.112Z,100912
2018-09-09T17:10:35.061Z,100911
2018-09-09T17:15:45.966Z,100919
2018-09-09T17:18:15.187Z,100914
2018-09-09T17:20:48.525Z,100917
2018-09-09T17:23:27.368Z,100912
2018-09-09T17:25:57.883Z,100914
2018-09-09T17:28:27.706Z,100925
2018-09-09T17:31:05.448Z,100927
2018-09-09T17:33:38.477Z,100918
2018-09-09T17:36:11.167Z,100921
2018-09-09T17:38:41.797Z,100922
2018-09-09T17:41:24.015Z,100931
2018-09-09T17:43:57.613Z,100927
2018-09-09T17:46:29.559Z,100927
2018-09-09T17:49:00.867Z,100929
2018-09-09T17:51:37.864Z,100941
2018-09-09T17:54:10.194Z,100939
2018-09-09T17:56:50.297Z,100938
2018-09-09T17:59:20.363Z,100940
2018-09-09T18:01:51.927Z,100945
2018-09-09T18:07:42.901Z,100943
2018-09-09T18:10:13.636Z,100947
2018-09-09T18:12:33.948Z,100944
2018-09-09T18:15:09.406Z,100941
2018-09-09T18:20:26.111Z,100948
2018-09-09T18:25:39.049Z,100953
2018-09-09T18:28:17.265Z,100959
2018-09-09T18:30:53.427Z,100959
2018-09-09T18:33:23.284Z,100961
2018-09-09T18:41:53.097Z,100968
2018-09-09T18:44:31.293Z,100964
2018-09-09T18:47:04.608Z,100964
2018-09-09T18:49:35.913Z,100968
2018-09-09T19:00:35.593Z,100971
2018-09-09T19:03:07.761Z,100968
2018-09-09T19:08:25.347Z,100974
2018-09-09T19:14:00.711Z,100986
2018-09-09T19:19:18.259Z,100980
2018-09-09T19:21:50.409Z,100988
2018-09-09T19:24:20.171Z,100988
2018-09-09T19:26:52.538Z,100990
2018-09-09T19:29:23.708Z,100998
2018-09-09T19:32:02.258Z,100989
2018-09-09T19:34:33.542Z,100996
2018-09-09T19:37:02.409Z,100995
2018-09-09T19:42:35.399Z,100993
2018-09-09T19:45:08.763Z,100994
2018-09-09T19:47:41.039Z,100994
2018-09-09T19:50:10.424Z,100991
2018-09-09T19:52:57.557Z,100996
2018-09-09T19:55:27.118Z,100999
2018-09-09T19:57:55.968Z,101001
2018-09-09T20:00:24.837Z,101000
2018-09-09T20:02:58.349Z,101005
2018-09-09T20:05:29.523Z,101004
2018-09-09T20:07:58.381Z,101002
2018-09-09T20:10:27.253Z,101005
2018-09-09T20:12:56.846Z,100998
2018-09-09T20:15:25.704Z,101002
2018-09-09T20:17:54.583Z,100993
2018-09-09T20:20:24.371Z,101000
2018-09-09T20:22:53.036Z,100999
2018-09-09T20:25:21.799Z,100995
2018-09-09T20:27:50.663Z,101003
2018-09-09T20:30:19.498Z,100996
2018-09-09T20:32:48.346Z,101001
2018-09-09T20:35:17.236Z,100992
2018-09-09T20:37:46.024Z,101002
2018-09-09T20:40:14.893Z,101001
2018-09-09T20:42:44.461Z,101002
2018-09-09T20:45:13.319Z,101002
2018-09-09T20:47:42.142Z,101021
2018-09-09T20:50:10.992Z,101015
2018-09-09T20:52:39.825Z,101017
2018-09-09T20:55:08.673Z,101016
2018-09-09T20:57:37.535Z,101016
2018-09-09T21:00:06.354Z,101019
2018-09-09T21:02:35.192Z,101021
2018-09-09T21:05:04.036Z,101015
2018-09-09T21:07:32.867Z,101019
2018-09-09T21:10:02.333Z,101023
2018-09-09T21:12:31.277Z,101017
2018-09-09T21:15:00.103Z,101032
2018-09-09T21:17:28.943Z,101029
2018-09-09T21:19:57.803Z,101032
2018-09-09T21:22:26.654Z,101031
2018-09-09T21:24:55.507Z,101030
2018-09-09T21:27:24.544Z,101023
2018-09-09T21:29:53.374Z,101031
2018-09-09T21:32:22.212Z,101034
2018-09-09T21:34:51.061Z,101034
2018-09-09T21:37:19.899Z,101041
2018-09-09T21:39:48.730Z,101040
2018-09-09T21:42:18.316Z,101033
2018-09-09T21:44:47.146Z,101039
2018-09-09T21:47:16.021Z,101035
2018-09-09T21:49:44.860Z,101037
2018-09-09T21:52:13.700Z,101037
2018-09-09T21:54:42.549Z,101028
2018-09-09T21:57:11.392Z,101026
2018-09-09T21:59:40.964Z,101031
2018-09-09T22:02:09.795Z,101020
2018-09-09T22:04:39.088Z,101022
2018-09-09T22:07:07.900Z,101029
2018-09-09T22:09:36.764Z,101027
2018-09-09T22:12:05.608Z,101026
2018-09-09T22:14:34.443Z,101032
2018-09-09T22:17:03.292Z,101033
2018-09-09T22:19:32.125Z,101033
2018-09-09T22:22:00.970Z,101027
2018-09-09T22:24:29.809Z,101024
2018-09-09T22:26:59.387Z,101027
2018-09-09T22:29:28.224Z,101028
2018-09-09T22:31:57.803Z,101028
2018-09-09T22:34:26.647Z,101026
2018-09-09T22:36:55.482Z,101037
2018-09-09T22:39:24.320Z,101038
2018-09-09T22:41:53.181Z,101045
2018-09-09T22:44:22.046Z,101041
2018-09-09T22:46:50.891Z,101040
2018-09-09T22:49:19.717Z,101039
2018-09-09T22:51:48.557Z,101036
2018-09-09T22:54:17.396Z,101031
2018-09-09T22:56:46.234Z,101030
2018-09-09T22:59:15.055Z,101031
2018-09-09T23:01:43.886Z,101030
2018-09-09T23:04:12.722Z,101027
2018-09-09T23:06:41.555Z,101030
2018-09-09T23:09:10.415Z,101024
2018-09-09T23:11:39.234Z,101020
2018-09-09T23:14:08.069Z,101022
2018-09-09T23:16:36.966Z,101021
2018-09-09T23:19:06.511Z,101017
2018-09-09T23:21:35.336Z,101011
2018-09-09T23:24:04.170Z,101011
2018-09-09T23:26:33.017Z,101010
2018-09-09T23:29:01.845Z,101014
2018-09-09T23:31:30.671Z,101016
2018-09-09T23:33:59.501Z,101013
2018-09-09T23:36:28.335Z,101006
2018-09-09T23:38:57.166Z,101014
2018-09-09T23:41:25.990Z,101001
2018-09-09T23:43:54.838Z,101018
2018-09-09T23:46:23.669Z,101016
2018-09-09T23:48:52.506Z,101009
2018-09-09T23:51:21.348Z,101001
2018-09-09T23:53:50.177Z,101005
2018-09-09T23:56:19.746Z,101012
2018-09-09T23:58:48.584Z,101014
